»·PEaware :: DEHNF 1L1-2O7

DEHNF :: 1L1-2O7

FLIGHT INFORMATION

Flight Status: Arrived
Operator: Unknown
More flights by this operator :: More flights under this callsign
Pilot: Klaus A. (15485)
Aircraft: MOONEY M-20 201 202 205 220 ATS MSE
(M20P)
More flights by this aircraft type
Origin: 1L1 Lincoln Co
United States
Destination: 2O7 Independence
United States
More flights between these airports :: More routes between these airports
Route: +DCT
File this flight plan on PilotEdge
Remarks: / G Newbie Custom Weather
Altitude:
(Current/Filed)
12,500ft
Speed:
(Current/Filed)
155kts
Departed: 13-Nov-17 08:54 AM
Arrived: 13-Nov-17 09:53 AM
Distance/Time
Traveled:
190nm/0:59
Distance/Time
To Go:
Arrived

Flight Plot

Page will automatically refresh every two minutes.


Map Options




Map Legend


Flown Route
Filed Route
Departure Airport
Arrival Airport
Navaid (VOR, NDB)
Fix

Horizontal Profiles

Position Reports

Time Latitude Longitude Heading Altitude Ground
Speed
13-Nov-17 08:58 37.851659 -115.773242 277 12531ft 172kts
13-Nov-17 08:59 37.861298 -115.832751 277 12530ft 173kts
13-Nov-17 09:00 37.871000 -115.892535 278 12530ft 173kts
13-Nov-17 09:01 37.880722 -115.952320 278 12530ft 173kts
13-Nov-17 09:02 37.890421 -116.011908 278 12530ft 173kts
13-Nov-17 09:03 37.900157 -116.071582 278 12529ft 173kts
13-Nov-17 09:04 37.908434 -116.131424 276 12529ft 172kts
13-Nov-17 09:05 37.916025 -116.191544 273 12529ft 172kts
13-Nov-17 09:06 37.920479 -116.251732 272 12529ft 171kts
13-Nov-17 09:07 37.923757 -116.312092 270 12529ft 172kts
13-Nov-17 09:08 37.925217 -116.372759 267 12528ft 172kts
13-Nov-17 09:09 37.924678 -116.433235 265 12528ft 171kts
13-Nov-17 09:10 37.922629 -116.493640 265 12528ft 171kts
13-Nov-17 09:11 37.920579 -116.553973 265 12528ft 171kts
13-Nov-17 09:12 37.918544 -116.614354 265 12527ft 171kts
13-Nov-17 09:13 37.916515 -116.674494 265 12531ft 171kts
13-Nov-17 09:14 37.914452 -116.734750 265 12531ft 172kts
13-Nov-17 09:15 37.912328 -116.795151 265 12530ft 171kts
13-Nov-17 09:16 37.910192 -116.855064 265 12530ft 170kts
13-Nov-17 09:17 37.908105 -116.914891 265 12530ft 169kts
13-Nov-17 09:18 37.906048 -116.974469 265 12530ft 169kts
13-Nov-17 09:19 37.904007 -117.034047 265 12530ft 169kts
13-Nov-17 09:20 37.901990 -117.093573 265 12529ft 169kts
13-Nov-17 09:21 37.881075 -117.141786 220 12531ft 170kts
13-Nov-17 09:22 37.841668 -117.175388 220 12529ft 170kts
13-Nov-17 09:23 37.804346 -117.212046 222 12529ft 170kts
13-Nov-17 09:24 37.767616 -117.249333 222 12528ft 170kts
13-Nov-17 09:25 37.730951 -117.286730 222 12528ft 170kts
13-Nov-17 09:26 37.694255 -117.324153 222 12528ft 170kts
13-Nov-17 09:27 37.657416 -117.361663 222 12527ft 170kts
13-Nov-17 09:28 37.622144 -117.397587 222 12527ft 170kts
13-Nov-17 09:29 37.585095 -117.435321 222 12481ft 171kts
13-Nov-17 09:30 37.548100 -117.472722 222 12481ft 170kts
13-Nov-17 09:31 37.511286 -117.510025 222 12481ft 170kts
13-Nov-17 09:32 37.474426 -117.547327 222 12480ft 170kts
13-Nov-17 09:33 37.437093 -117.585070 222 12444ft 173kts
13-Nov-17 09:34 37.399523 -117.622974 222 12444ft 172kts
13-Nov-17 09:35 37.362726 -117.660058 222 12448ft 170kts
13-Nov-17 09:36 37.325784 -117.697256 222 12447ft 171kts
13-Nov-17 09:37 37.288636 -117.734602 222 12447ft 171kts
13-Nov-17 09:38 37.251676 -117.771684 222 12480ft 169kts
13-Nov-17 09:39 37.214662 -117.808906 221 12484ft 171kts
13-Nov-17 09:40 37.177239 -117.846202 221 12483ft 172kts
13-Nov-17 09:41 37.139826 -117.883628 221 12458ft 174kts
13-Nov-17 09:42 37.100866 -117.922600 219 11709ft 181kts
13-Nov-17 09:43 37.064049 -117.959197 219 11578ft 157kts
13-Nov-17 09:44 37.029644 -117.993515 219 11583ft 158kts
13-Nov-17 09:45 37.005229 -118.038068 242 11589ft 160kts
13-Nov-17 09:46 36.985246 -118.088478 242 11582ft 161kts
13-Nov-17 09:47 36.965448 -118.138391 242 11585ft 161kts
13-Nov-17 09:48 36.943460 -118.184843 224 11368ft 145kts
13-Nov-17 09:49 36.902755 -118.203258 190 9821ft 175kts
13-Nov-17 09:50 36.857780 -118.212887 202 8240ft 162kts
13-Nov-17 09:51 36.811590 -118.219946 179 6382ft 168kts
13-Nov-17 09:52 36.782170 -118.186040 50 5043ft 145kts
13-Nov-17 09:53 36.812472 -118.202800 334 4431ft 115kts
13-Nov-17 09:54 36.834659 -118.200649 84 4320ft 101kts
13-Nov-17 09:55 36.812326 -118.183061 147 4327ft 96kts
13-Nov-17 09:56 36.794052 -118.190466 258 4243ft 84kts
13-Nov-17 09:57 36.811988 -118.202686 337 3926ft 73kts
13-Nov-17 09:58 36.815895 -118.204760 152 3911ft 15kts
13-Nov-17 09:59 36.810293 -118.202330 228 3911ft 4kts
13-Nov-17 10:00 36.810238 -118.202784 245 3911ft 0kts
13-Nov-17 10:01 36.810238 -118.202784 245 3911ft 0kts
13-Nov-17 10:02 36.810238 -118.202784 245 3911ft 0kts
13-Nov-17 10:03 36.810238 -118.202784 245 3911ft 0kts
13-Nov-17 10:04 36.810238 -118.202784 245 3911ft 0kts
13-Nov-17 10:05 36.810238 -118.202784 245 3911ft 0kts
13-Nov-17 10:06 36.810238 -118.202784 245 3911ft 0kts
13-Nov-17 10:07 36.810238 -118.202784 245 3911ft 0kts
13-Nov-17 10:08 36.810238 -118.202784 245 3911ft 0kts
13-Nov-17 10:09 36.810238 -118.202784 245 3911ft 0kts
13-Nov-17 10:10 36.810238 -118.202784 245 3911ft 0kts

Navigation Log

Ident Type
Flight plan parsing failed, navigation log unavailable